Weather at Aeródromo Benagéber

Public forecast

Using degrees Celsius for public forecast. Weather courtesy of forecast.io.

Closest aviation weather report (METAR) to Aeródromo Benagéber

Closest report is Valencia Airport, 33.8 nm (62.6 km) ESE. Retrieved 2022/01/16 18:30 UTC (55 seconds ago):

LEVC 161830Z VRB01KT CAVOK 08/03 Q1031 NOSIG

Closest aviation forecast (TAF) to Aeródromo Benagéber

Closest forecast is Valencia Airport, 33.8 nm (62.6 km) ESE. Retrieved 2022/01/16 18:27 UTC (4 minutes ago):

TAF LEVC 161700Z 1618/1718 30007KT CAVOK TX16/1713Z TNM00/1706Z PROB30 TEMPO 1618/1620 13010KT PROB30 TEMPO 1712/1718 13010KT